GLO1782 SBEG-SBSN
Flight info
| Callsign | GLO1782 |
|---|---|
| Flight time | 0h 53m |
| Altitude | 35000 |
| Route | XOLOK UZ81 TOBUX DCT STM DCT |
| Aircraft | B738/M-SDFGIKLORWXY/LB1 |
Departure
| Time | 2026-04-24 21:31 |
|---|---|
| Airport | Eduardo Gomes International Airport (SBEG) |
Arrival
| Time | 2026-04-24 22:24 |
|---|---|
| Airport | Santarém - Maestro Wilson Fonseca International Airport (SBSN) |
| Time | Latitude | Longitude | Altitude | Speed | Heading |
|---|---|---|---|---|---|
| 2026-04-24 21:05 | -3.03276 | -60.04623 | 267 ft | 0 kts | 1° |
| 2026-04-24 21:22 | -3.03280 | -60.04623 | 267 ft | 3 kts | 0° |
| 2026-04-24 21:22 | -3.03307 | -60.04622 | 267 ft | 4 kts | 352° |
| 2026-04-24 21:22 | -3.03333 | -60.04616 | 267 ft | 4 kts | 335° |
| 2026-04-24 21:22 | -3.03353 | -60.04602 | 267 ft | 4 kts | 291° |
| 2026-04-24 21:23 | -3.03356 | -60.04590 | 267 ft | 1 kts | 270° |
| 2026-04-24 21:23 | -3.03356 | -60.04588 | 267 ft | 0 kts | 270° |
| 2026-04-24 21:25 | -3.03356 | -60.04590 | 267 ft | 1 kts | 269° |
| 2026-04-24 21:25 | -3.03356 | -60.04620 | 267 ft | 7 kts | 269° |
| 2026-04-24 21:26 | -3.03354 | -60.04673 | 267 ft | 8 kts | 272° |
| 2026-04-24 21:26 | -3.03360 | -60.04733 | 267 ft | 11 kts | 256° |
| 2026-04-24 21:26 | -3.03400 | -60.04812 | 267 ft | 13 kts | 232° |
| 2026-04-24 21:26 | -3.03467 | -60.04874 | 267 ft | 13 kts | 217° |
| 2026-04-24 21:27 | -3.03534 | -60.04933 | 267 ft | 13 kts | 230° |
| 2026-04-24 21:27 | -3.03579 | -60.05007 | 267 ft | 12 kts | 248° |
| 2026-04-24 21:27 | -3.03604 | -60.05088 | 267 ft | 12 kts | 255° |
| 2026-04-24 21:27 | -3.03626 | -60.05174 | 267 ft | 15 kts | 255° |
| 2026-04-24 21:28 | -3.03654 | -60.05278 | 267 ft | 15 kts | 255° |
| 2026-04-24 21:28 | -3.03677 | -60.05380 | 267 ft | 15 kts | 259° |
| 2026-04-24 21:28 | -3.03689 | -60.05480 | 267 ft | 14 kts | 265° |
| 2026-04-24 21:28 | -3.03691 | -60.05577 | 267 ft | 14 kts | 270° |
| 2026-04-24 21:29 | -3.03691 | -60.05682 | 267 ft | 15 kts | 270° |
| 2026-04-24 21:29 | -3.03691 | -60.05787 | 267 ft | 15 kts | 271° |
| 2026-04-24 21:29 | -3.03691 | -60.05903 | 267 ft | 18 kts | 270° |
| 2026-04-24 21:29 | -3.03691 | -60.06026 | 267 ft | 17 kts | 270° |
| 2026-04-24 21:30 | -3.03710 | -60.06140 | 267 ft | 17 kts | 238° |
| 2026-04-24 21:30 | -3.03815 | -60.06171 | 268 ft | 16 kts | 171° |
| 2026-04-24 21:30 | -3.03857 | -60.06079 | 268 ft | 19 kts | 90° |
| 2026-04-24 21:30 | -3.03858 | -60.05729 | 267 ft | 85 kts | 90° |
| 2026-04-24 21:31 | -3.03860 | -60.04920 | 267 ft | 145 kts | 90° |
| 2026-04-24 21:31 | -3.03860 | -60.03763 | 403 ft | 181 kts | 91° |
| 2026-04-24 21:31 | -3.03908 | -60.02501 | 1146 ft | 183 kts | 93° |
| 2026-04-24 21:31 | -3.03963 | -60.01200 | 1749 ft | 197 kts | 91° |
| 2026-04-24 21:32 | -3.03963 | -59.99728 | 2007 ft | 224 kts | 89° |
| 2026-04-24 21:32 | -3.03923 | -59.98072 | 2215 ft | 252 kts | 89° |
| 2026-04-24 21:32 | -3.03952 | -59.96270 | 2788 ft | 262 kts | 92° |
| 2026-04-24 21:32 | -3.04015 | -59.94447 | 3554 ft | 267 kts | 92° |
| 2026-04-24 21:33 | -3.04084 | -59.92581 | 4363 ft | 270 kts | 92° |
| 2026-04-24 21:33 | -3.04131 | -59.91336 | 4877 ft | 272 kts | 92° |
| 2026-04-24 21:33 | -3.04226 | -59.88789 | 5920 ft | 275 kts | 92° |
| 2026-04-24 21:33 | -3.04296 | -59.86866 | 6673 ft | 279 kts | 92° |
| 2026-04-24 21:34 | -3.04367 | -59.84914 | 7422 ft | 282 kts | 92° |
| 2026-04-24 21:34 | -3.04438 | -59.82952 | 8158 ft | 284 kts | 92° |
| 2026-04-24 21:34 | -3.04510 | -59.80962 | 8878 ft | 288 kts | 92° |
| 2026-04-24 21:34 | -3.04582 | -59.78950 | 9588 ft | 291 kts | 92° |
| 2026-04-24 21:35 | -3.04654 | -59.76943 | 10262 ft | 295 kts | 92° |
| 2026-04-24 21:35 | -3.04731 | -59.74822 | 10491 ft | 316 kts | 92° |
| 2026-04-24 21:35 | -3.04812 | -59.72561 | 10862 ft | 330 kts | 92° |
| 2026-04-24 21:35 | -3.04895 | -59.70235 | 11492 ft | 335 kts | 92° |
| 2026-04-24 21:36 | -3.04978 | -59.67884 | 12216 ft | 338 kts | 92° |
| 2026-04-24 21:36 | -3.05061 | -59.65524 | 12919 ft | 341 kts | 92° |
| 2026-04-24 21:36 | -3.05143 | -59.63172 | 13595 ft | 345 kts | 92° |
| 2026-04-24 21:36 | -3.05227 | -59.60761 | 14290 ft | 348 kts | 92° |
| 2026-04-24 21:37 | -3.05313 | -59.58326 | 14991 ft | 352 kts | 92° |
| 2026-04-24 21:37 | -3.05399 | -59.55868 | 15683 ft | 355 kts | 92° |
| 2026-04-24 21:37 | -3.05486 | -59.53386 | 16350 ft | 359 kts | 92° |
| 2026-04-24 21:37 | -3.05574 | -59.50877 | 17011 ft | 362 kts | 92° |
| 2026-04-24 21:38 | -3.05664 | -59.48348 | 17653 ft | 366 kts | 92° |
| 2026-04-24 21:38 | -3.05760 | -59.45790 | 18280 ft | 369 kts | 92° |
| 2026-04-24 21:38 | -3.05848 | -59.43206 | 18887 ft | 373 kts | 92° |
| 2026-04-24 21:38 | -3.05936 | -59.40603 | 19486 ft | 376 kts | 92° |
| 2026-04-24 21:39 | -3.06026 | -59.37976 | 20072 ft | 379 kts | 92° |
| 2026-04-24 21:39 | -3.06116 | -59.35360 | 20632 ft | 383 kts | 92° |
| 2026-04-24 21:39 | -3.06209 | -59.32682 | 21185 ft | 386 kts | 92° |
| 2026-04-24 21:39 | -3.06303 | -59.29988 | 21727 ft | 389 kts | 92° |
| 2026-04-24 21:40 | -3.06398 | -59.27266 | 22247 ft | 392 kts | 92° |
| 2026-04-24 21:40 | -3.06493 | -59.24529 | 22754 ft | 396 kts | 92° |
| 2026-04-24 21:40 | -3.06590 | -59.21763 | 23258 ft | 398 kts | 92° |
| 2026-04-24 21:40 | -3.06686 | -59.18982 | 23743 ft | 401 kts | 92° |
| 2026-04-24 21:41 | -3.06783 | -59.16180 | 24207 ft | 404 kts | 92° |
| 2026-04-24 21:41 | -3.06882 | -59.13352 | 24660 ft | 407 kts | 92° |
| 2026-04-24 21:41 | -3.06980 | -59.10514 | 25104 ft | 410 kts | 92° |
| 2026-04-24 21:41 | -3.07078 | -59.07684 | 25535 ft | 413 kts | 92° |
| 2026-04-24 21:42 | -3.07178 | -59.04805 | 25952 ft | 415 kts | 92° |
| 2026-04-24 21:42 | -3.07278 | -59.01898 | 26362 ft | 418 kts | 92° |
| 2026-04-24 21:42 | -3.07379 | -58.98977 | 26756 ft | 421 kts | 92° |
| 2026-04-24 21:42 | -3.07480 | -58.96038 | 27144 ft | 423 kts | 92° |
| 2026-04-24 21:43 | -3.07582 | -58.93081 | 27521 ft | 426 kts | 92° |
| 2026-04-24 21:43 | -3.07683 | -58.90152 | 27880 ft | 428 kts | 92° |
| 2026-04-24 21:43 | -3.07786 | -58.87169 | 28241 ft | 430 kts | 92° |
| 2026-04-24 21:43 | -3.07890 | -58.84157 | 28583 ft | 433 kts | 92° |
| 2026-04-24 21:44 | -3.07994 | -58.81142 | 28916 ft | 435 kts | 92° |
| 2026-04-24 21:44 | -3.08098 | -58.78100 | 29240 ft | 437 kts | 92° |
| 2026-04-24 21:44 | -3.08203 | -58.75042 | 29554 ft | 440 kts | 92° |
| 2026-04-24 21:44 | -3.08307 | -58.72015 | 29859 ft | 442 kts | 92° |
| 2026-04-24 21:45 | -3.08412 | -58.68938 | 30159 ft | 444 kts | 92° |
| 2026-04-24 21:45 | -3.08519 | -58.65836 | 30453 ft | 446 kts | 92° |
| 2026-04-24 21:45 | -3.08625 | -58.62722 | 30731 ft | 448 kts | 92° |
| 2026-04-24 21:45 | -3.08732 | -58.59605 | 30996 ft | 450 kts | 92° |
| 2026-04-24 21:46 | -3.08839 | -58.56471 | 31265 ft | 451 kts | 92° |
| 2026-04-24 21:46 | -3.08946 | -58.53323 | 31519 ft | 453 kts | 92° |
| 2026-04-24 21:46 | -3.09054 | -58.50166 | 31769 ft | 455 kts | 92° |
| 2026-04-24 21:46 | -3.09162 | -58.46996 | 32009 ft | 457 kts | 92° |
| 2026-04-24 21:47 | -3.09270 | -58.43820 | 32241 ft | 458 kts | 92° |
| 2026-04-24 21:47 | -3.09342 | -58.41703 | 32393 ft | 459 kts | 92° |
| 2026-04-24 21:47 | -3.09485 | -58.37425 | 32731 ft | 460 kts | 91° |
| 2026-04-24 21:47 | -3.09211 | -58.34245 | 33005 ft | 459 kts | 77° |
| 2026-04-24 21:48 | -3.08438 | -58.31151 | 33368 ft | 457 kts | 75° |
| 2026-04-24 21:48 | -3.07645 | -58.28116 | 33662 ft | 456 kts | 75° |
| 2026-04-24 21:48 | -3.06842 | -58.25037 | 33907 ft | 457 kts | 76° |
| 2026-04-24 21:48 | -3.06054 | -58.21953 | 34161 ft | 457 kts | 76° |
| 2026-04-24 21:49 | -3.05280 | -58.18879 | 34446 ft | 456 kts | 76° |
| 2026-04-24 21:49 | -3.04515 | -58.15808 | 34734 ft | 455 kts | 76° |
| 2026-04-24 21:49 | -3.03755 | -58.12734 | 34972 ft | 455 kts | 76° |
| 2026-04-24 21:50 | -3.02234 | -58.06585 | 35001 ft | 453 kts | 76° |
| 2026-04-24 21:50 | -3.00728 | -58.00510 | 34997 ft | 446 kts | 76° |
| 2026-04-24 21:51 | -2.99254 | -57.94527 | 35004 ft | 445 kts | 76° |
| 2026-04-24 21:51 | -2.97772 | -57.88507 | 35005 ft | 445 kts | 76° |
| 2026-04-24 21:52 | -2.96288 | -57.82486 | 35008 ft | 445 kts | 76° |
| 2026-04-24 21:52 | -2.94804 | -57.76466 | 35003 ft | 445 kts | 76° |
| 2026-04-24 21:53 | -2.93319 | -57.70447 | 35001 ft | 446 kts | 76° |
| 2026-04-24 21:53 | -2.91838 | -57.64447 | 35000 ft | 447 kts | 76° |
| 2026-04-24 21:54 | -2.90344 | -57.58392 | 35002 ft | 447 kts | 76° |
| 2026-04-24 21:54 | -2.88850 | -57.52339 | 35005 ft | 448 kts | 76° |
| 2026-04-24 21:55 | -2.87361 | -57.46309 | 35002 ft | 449 kts | 76° |
| 2026-04-24 21:55 | -2.85861 | -57.40239 | 34997 ft | 449 kts | 76° |
| 2026-04-24 21:56 | -2.84614 | -57.35192 | 35007 ft | 449 kts | 76° |
| 2026-04-24 21:56 | -2.83113 | -57.29115 | 35002 ft | 449 kts | 76° |
| 2026-04-24 21:57 | -2.81619 | -57.23070 | 35003 ft | 449 kts | 76° |
| 2026-04-24 21:57 | -2.80119 | -57.17002 | 35001 ft | 449 kts | 76° |
| 2026-04-24 21:58 | -2.78617 | -57.10927 | 35003 ft | 449 kts | 76° |
| 2026-04-24 21:58 | -2.77124 | -57.04891 | 35006 ft | 448 kts | 76° |
| 2026-04-24 21:59 | -2.75626 | -56.98836 | 35000 ft | 448 kts | 76° |
| 2026-04-24 21:59 | -2.74124 | -56.92765 | 34482 ft | 454 kts | 76° |
| 2026-04-24 21:59 | -2.73365 | -56.89700 | 33904 ft | 453 kts | 76° |
| 2026-04-24 22:00 | -2.72607 | -56.86638 | 33272 ft | 453 kts | 76° |
| 2026-04-24 22:00 | -2.71850 | -56.83580 | 32614 ft | 454 kts | 76° |
| 2026-04-24 22:00 | -2.71091 | -56.80515 | 31958 ft | 454 kts | 76° |
| 2026-04-24 22:00 | -2.70336 | -56.77461 | 31492 ft | 450 kts | 76° |
| 2026-04-24 22:01 | -2.69586 | -56.74434 | 30998 ft | 447 kts | 76° |
| 2026-04-24 22:01 | -2.68839 | -56.71417 | 30510 ft | 443 kts | 76° |
| 2026-04-24 22:01 | -2.68110 | -56.68474 | 30044 ft | 440 kts | 76° |
| 2026-04-24 22:01 | -2.67375 | -56.65508 | 29555 ft | 436 kts | 76° |
| 2026-04-24 22:02 | -2.66649 | -56.62576 | 29077 ft | 433 kts | 76° |
| 2026-04-24 22:02 | -2.65926 | -56.59659 | 28585 ft | 430 kts | 76° |
| 2026-04-24 22:02 | -2.65215 | -56.56787 | 28097 ft | 426 kts | 76° |
| 2026-04-24 22:02 | -2.64501 | -56.53904 | 27607 ft | 423 kts | 76° |
| 2026-04-24 22:03 | -2.63801 | -56.51079 | 27124 ft | 420 kts | 76° |
| 2026-04-24 22:03 | -2.63099 | -56.48246 | 26641 ft | 417 kts | 76° |
| 2026-04-24 22:03 | -2.62404 | -56.45442 | 26157 ft | 414 kts | 76° |
| 2026-04-24 22:03 | -2.61712 | -56.42639 | 25674 ft | 412 kts | 77° |
| 2026-04-24 22:04 | -2.61228 | -56.39834 | 25192 ft | 409 kts | 83° |
| 2026-04-24 22:04 | -2.60945 | -56.37013 | 24721 ft | 406 kts | 85° |
| 2026-04-24 22:04 | -2.60705 | -56.34234 | 24248 ft | 403 kts | 85° |
| 2026-04-24 22:04 | -2.60433 | -56.31443 | 23774 ft | 401 kts | 84° |
| 2026-04-24 22:05 | -2.60130 | -56.28668 | 23300 ft | 398 kts | 83° |
| 2026-04-24 22:05 | -2.59821 | -56.25955 | 22814 ft | 396 kts | 83° |
| 2026-04-24 22:05 | -2.59503 | -56.23206 | 22222 ft | 397 kts | 83° |
| 2026-04-24 22:05 | -2.59186 | -56.20475 | 21767 ft | 394 kts | 83° |
| 2026-04-24 22:06 | -2.58871 | -56.17762 | 21308 ft | 391 kts | 83° |
| 2026-04-24 22:06 | -2.58560 | -56.15073 | 20852 ft | 388 kts | 83° |
| 2026-04-24 22:06 | -2.58252 | -56.12403 | 20406 ft | 385 kts | 83° |
| 2026-04-24 22:06 | -2.57946 | -56.09751 | 19962 ft | 382 kts | 83° |
| 2026-04-24 22:07 | -2.57643 | -56.07129 | 19523 ft | 379 kts | 83° |
| 2026-04-24 22:07 | -2.57341 | -56.04510 | 19084 ft | 376 kts | 83° |
| 2026-04-24 22:07 | -2.57043 | -56.01921 | 18648 ft | 374 kts | 83° |
| 2026-04-24 22:07 | -2.56749 | -55.99376 | 18215 ft | 371 kts | 83° |
| 2026-04-24 22:08 | -2.56454 | -55.96822 | 17784 ft | 369 kts | 83° |
| 2026-04-24 22:08 | -2.56160 | -55.94273 | 17341 ft | 366 kts | 83° |
| 2026-04-24 22:08 | -2.55868 | -55.91745 | 16904 ft | 364 kts | 83° |
| 2026-04-24 22:08 | -2.55579 | -55.89241 | 16472 ft | 362 kts | 83° |
| 2026-04-24 22:09 | -2.55291 | -55.86748 | 16041 ft | 360 kts | 83° |
| 2026-04-24 22:09 | -2.55005 | -55.84273 | 15602 ft | 358 kts | 83° |
| 2026-04-24 22:09 | -2.54721 | -55.81812 | 15170 ft | 355 kts | 83° |
| 2026-04-24 22:09 | -2.54441 | -55.79387 | 14744 ft | 353 kts | 83° |
| 2026-04-24 22:10 | -2.54159 | -55.76948 | 14314 ft | 351 kts | 83° |
| 2026-04-24 22:10 | -2.53879 | -55.74522 | 13887 ft | 349 kts | 83° |
| 2026-04-24 22:10 | -2.53601 | -55.72119 | 13452 ft | 347 kts | 83° |
| 2026-04-24 22:10 | -2.53324 | -55.69721 | 13037 ft | 345 kts | 83° |
| 2026-04-24 22:11 | -2.53049 | -55.67341 | 12625 ft | 343 kts | 83° |
| 2026-04-24 22:11 | -2.52778 | -55.65000 | 12205 ft | 342 kts | 83° |
| 2026-04-24 22:11 | -2.52502 | -55.62614 | 11786 ft | 339 kts | 83° |
| 2026-04-24 22:11 | -2.52235 | -55.60304 | 11380 ft | 337 kts | 83° |
| 2026-04-24 22:12 | -2.51966 | -55.57978 | 10972 ft | 335 kts | 83° |
| 2026-04-24 22:12 | -2.51699 | -55.55669 | 10632 ft | 331 kts | 83° |
| 2026-04-24 22:12 | -2.51438 | -55.53415 | 10484 ft | 321 kts | 83° |
| 2026-04-24 22:12 | -2.51184 | -55.51222 | 10328 ft | 312 kts | 83° |
| 2026-04-24 22:13 | -2.50938 | -55.49099 | 10185 ft | 303 kts | 83° |
| 2026-04-24 22:13 | -2.50705 | -55.47031 | 10050 ft | 295 kts | 84° |
| 2026-04-24 22:13 | -2.50499 | -55.45000 | 9763 ft | 293 kts | 84° |
| 2026-04-24 22:13 | -2.50304 | -55.43008 | 9478 ft | 290 kts | 84° |
| 2026-04-24 22:14 | -2.50109 | -55.41003 | 9186 ft | 289 kts | 84° |
| 2026-04-24 22:14 | -2.49915 | -55.39007 | 8893 ft | 287 kts | 84° |
| 2026-04-24 22:14 | -2.49721 | -55.37029 | 8603 ft | 285 kts | 84° |
| 2026-04-24 22:14 | -2.49527 | -55.35058 | 8308 ft | 284 kts | 84° |
| 2026-04-24 22:15 | -2.49333 | -55.33086 | 8017 ft | 282 kts | 84° |
| 2026-04-24 22:15 | -2.49140 | -55.31135 | 7727 ft | 281 kts | 84° |
| 2026-04-24 22:15 | -2.48951 | -55.29219 | 7445 ft | 279 kts | 84° |
| 2026-04-24 22:15 | -2.48761 | -55.27292 | 7149 ft | 278 kts | 84° |
| 2026-04-24 22:16 | -2.48571 | -55.25373 | 6865 ft | 277 kts | 84° |
| 2026-04-24 22:16 | -2.48381 | -55.23455 | 6572 ft | 276 kts | 84° |
| 2026-04-24 22:16 | -2.48193 | -55.21555 | 6330 ft | 272 kts | 84° |
| 2026-04-24 22:16 | -2.48009 | -55.19696 | 6200 ft | 265 kts | 84° |
| 2026-04-24 22:17 | -2.47830 | -55.17889 | 6069 ft | 258 kts | 84° |
| 2026-04-24 22:17 | -2.47655 | -55.16127 | 5940 ft | 251 kts | 84° |
| 2026-04-24 22:17 | -2.47486 | -55.14415 | 5831 ft | 244 kts | 84° |
| 2026-04-24 22:17 | -2.47320 | -55.12744 | 5652 ft | 239 kts | 84° |
| 2026-04-24 22:18 | -2.47158 | -55.11109 | 5449 ft | 233 kts | 84° |
| 2026-04-24 22:18 | -2.47001 | -55.09518 | 5188 ft | 228 kts | 84° |
| 2026-04-24 22:18 | -2.46846 | -55.07957 | 4936 ft | 223 kts | 84° |
| 2026-04-24 22:18 | -2.46693 | -55.06451 | 4685 ft | 218 kts | 82° |
| 2026-04-24 22:19 | -2.46464 | -55.04974 | 4457 ft | 212 kts | 80° |
| 2026-04-24 22:19 | -2.46221 | -55.03542 | 4369 ft | 207 kts | 80° |
| 2026-04-24 22:19 | -2.45977 | -55.02091 | 4154 ft | 215 kts | 80° |
| 2026-04-24 22:19 | -2.45734 | -55.00630 | 3918 ft | 211 kts | 80° |
| 2026-04-24 22:20 | -2.45497 | -54.99194 | 3684 ft | 207 kts | 80° |
| 2026-04-24 22:20 | -2.45267 | -54.97794 | 3478 ft | 201 kts | 80° |
| 2026-04-24 22:20 | -2.45044 | -54.96440 | 3276 ft | 194 kts | 80° |
| 2026-04-24 22:20 | -2.44831 | -54.95126 | 3058 ft | 189 kts | 80° |
| 2026-04-24 22:21 | -2.44623 | -54.93847 | 2848 ft | 183 kts | 81° |
| 2026-04-24 22:21 | -2.44420 | -54.92598 | 2666 ft | 182 kts | 81° |
| 2026-04-24 22:21 | -2.44217 | -54.91344 | 2450 ft | 182 kts | 81° |
| 2026-04-24 22:21 | -2.44019 | -54.90125 | 2208 ft | 174 kts | 80° |
| 2026-04-24 22:22 | -2.43831 | -54.88969 | 1996 ft | 168 kts | 80° |
| 2026-04-24 22:22 | -2.43644 | -54.87822 | 1803 ft | 163 kts | 80° |
| 2026-04-24 22:22 | -2.43461 | -54.86712 | 1588 ft | 161 kts | 80° |
| 2026-04-24 22:22 | -2.43279 | -54.85612 | 1360 ft | 158 kts | 80° |
| 2026-04-24 22:23 | -2.43101 | -54.84529 | 1149 ft | 158 kts | 80° |
| 2026-04-24 22:23 | -2.42921 | -54.83442 | 940 ft | 158 kts | 81° |
| 2026-04-24 22:23 | -2.42749 | -54.82360 | 696 ft | 156 kts | 82° |
| 2026-04-24 22:23 | -2.42586 | -54.81298 | 412 ft | 151 kts | 81° |
| 2026-04-24 22:24 | -2.42417 | -54.80289 | 212 ft | 143 kts | 79° |
| 2026-04-24 22:24 | -2.42262 | -54.79410 | 185 ft | 112 kts | 81° |
| 2026-04-24 22:24 | -2.42161 | -54.78788 | 192 ft | 69 kts | 81° |
| 2026-04-24 22:24 | -2.42103 | -54.78440 | 197 ft | 38 kts | 81° |
| 2026-04-24 22:25 | -2.42076 | -54.78246 | 190 ft | 14 kts | 104° |
| 2026-04-24 22:25 | -2.42131 | -54.78231 | 201 ft | 7 kts | 204° |
| 2026-04-24 22:25 | -2.42177 | -54.78251 | 199 ft | 7 kts | 205° |
| 2026-04-24 22:25 | -2.42221 | -54.78271 | 190 ft | 7 kts | 204° |
| 2026-04-24 22:26 | -2.42265 | -54.78291 | 197 ft | 7 kts | 205° |
| 2026-04-24 22:26 | -2.42303 | -54.78317 | 201 ft | 7 kts | 240° |
| 2026-04-24 22:26 | -2.42303 | -54.78370 | 190 ft | 9 kts | 277° |
| 2026-04-24 22:26 | -2.42301 | -54.78396 | 197 ft | 4 kts | 272° |
| 2026-04-24 22:27 | -2.42300 | -54.78438 | 190 ft | 7 kts | 266° |
| 2026-04-24 22:27 | -2.42319 | -54.78467 | 193 ft | 3 kts | 181° |
| 2026-04-24 22:27 | -2.42340 | -54.78463 | 195 ft | 3 kts | 166° |
| 2026-04-24 22:27 | -2.42350 | -54.78460 | 198 ft | 0 kts | 166° |